Latest Weather Observations for Kuitpo

IDS60801

Issued at 9:35 pm CST Tuesday 23 September 2014 (issued every 30 minutes, with the page automatically refreshed every 10 minutes)

About weather observations | Map of weather stations | Latest weather observations for SA | Other Formats
Station Details ID: 023887 Name: KUITPO FOREST RESERVE Lat: -35.17 Lon: 138.68 Height: 365.0 m
Data from the previous 72 hours. | See also: Recent months at Kuitpo
Date/Time
CST
Temp
°C
App
Temp
°C
Dew
Point
Rel
Hum
%
Delta-T
°C
Wind Press
QNH
hPa
Press
MSL
hPa
Rain
since 9 am
mm
Dir
 
Spd
km/h
Gust
km/h
Spd
kts
Gust
kts
23/09:30pm 14.9 12.2 10.3 74 2.5 ENE 15 20 8 11 1016.0 1015.9 1.0
23/09:00pm 15.0 11.9 10.4 74 2.5 ENE 17 26 9 14 1016.0 1015.9 1.0
23/08:30pm 14.4 11.8 10.6 78 2.0 ENE 15 17 8 9 1016.3 1016.1 1.0
23/08:00pm 13.9 11.1 10.1 78 2.0 N 15 20 8 11 1016.4 1016.2 0.8
23/07:30pm 16.2 11.9 7.9 58 4.3 E 20 26 11 14 1015.3 1015.2 0.2
23/07:00pm 16.2 12.1 8.7 61 3.9 E 20 28 11 15 1015.3 1015.2 0.2
23/06:30pm 15.5 12.2 9.6 68 3.1 ENE 17 24 9 13 1015.2 1015.1 0.2
23/06:00pm 16.9 13.8 10.3 65 3.6 N 17 28 9 15 1015.9 1015.8 0.0
23/05:30pm 19.1 17.1 10.1 56 4.9 E 11 19 6 10 1015.4 1015.3 0.0
23/05:00pm 20.0 16.2 9.0 49 5.9 NE 19 35 10 19 1015.4 1015.3 0.0
23/04:30pm 21.2 19.0 9.4 47 6.4 NNE 11 15 6 8 1015.1 1015.0 0.0
23/04:00pm 21.9 17.7 8.4 42 7.2 NE 20 32 11 17 1015.1 1015.0 0.0
23/03:30pm 23.5 20.8 8.8 39 8.0 N 13 26 7 14 1015.4 1015.3 0.0
23/03:00pm 22.8 19.8 9.2 42 7.4 NNE 15 26 8 14 1015.8 1015.7 0.0
23/02:30pm 22.6 19.4 10.1 45 6.9 NNE 17 26 9 14 1016.3 1016.1 0.0
23/02:00pm 22.9 19.7 10.0 44 7.2 NE 17 26 9 14 1016.5 1016.3 0.0
23/01:30pm 21.9 18.9 9.4 45 6.8 N 15 26 8 14 1016.9 1016.8 0.0
23/01:00pm 21.4 18.6 9.9 48 6.3 NNE 15 28 8 15 1017.3 1017.2 0.0
23/12:30pm 21.9 18.3 9.8 46 6.6 NNE 19 33 10 18 1017.4 1017.3 0.0
23/12:00pm 21.2 17.7 10.1 49 6.1 NNE 19 33 10 18 1017.9 1017.8 0.0
23/11:30am 21.8 18.4 9.0 44 6.9 NE 17 28 9 15 1018.1 1018.0 0.0
23/11:00am 22.1 18.5 9.9 46 6.7 NE 19 30 10 16 1018.6 1018.5 0.0
23/10:30am 21.8 19.3 9.7 46 6.6 NNE 13 28 7 15 1018.9 1018.8 0.0
23/10:00am 21.6 19.1 9.8 47 6.5 N 13 24 7 13 1019.4 1019.3 0.0
23/09:30am 19.9 16.6 9.5 51 5.6 N 17 28 9 15 1019.7 1019.6 0.0
23/09:00am 19.6 15.8 8.9 50 5.7 N 19 28 10 15 1020.2 1020.1 0.0
23/08:30am 18.8 16.6 9.3 54 5.1 N 11 22 6 12 1020.5 1020.4 0.0
23/08:00am 17.8 15.6 9.2 57 4.6 N 11 24 6 13 1020.7 1020.6 0.0
23/07:30am 16.6 14.1 8.1 57 4.4 NNE 11 20 6 11 1020.7 1020.6 0.0
23/07:00am 15.3 12.0 6.6 56 4.3 NNE 13 20 7 11 1020.6 1020.5 0.0
23/06:30am 14.0 10.0 5.1 55 4.2 NNE 15 24 8 13 1020.4 1020.3 0.0
23/06:00am 13.2 9.0 3.8 53 4.3 NNE 15 20 8 11 1020.2 1020.1 0.0
23/05:30am 13.4 9.4 2.6 48 4.8 NNE 13 19 7 10 1020.2 1020.1 0.0
23/05:00am 13.0 8.8 1.7 46 5.0 NNE 13 17 7 9 1020.3 1020.2 0.0
23/04:30am 13.6 8.9 0.6 41 5.6 NE 15 20 8 11 1020.2 1020.1 0.0
23/04:00am 13.2 8.4 0.3 41 5.5 NNE 15 22 8 12 1020.3 1020.2 0.0
23/03:30am 13.2 8.4 -0.1 40 5.6 NNE 15 22 8 12 1020.1 1020.0 0.0
23/03:00am 13.7 8.1 0.0 39 5.8 NE 19 26 10 14 1020.1 1020.0 0.0
23/02:30am 14.0 8.7 -0.4 37 6.1 NE 17 22 9 12 1020.1 1020.0 0.0
23/02:00am 14.4 8.7 -0.5 36 6.3 NE 19 28 10 15 1020.4 1020.3 0.0
23/01:30am 14.7 8.8 -0.6 35 6.5 NE 20 30 11 16 1020.6 1020.5 0.0
23/01:00am 14.2 8.5 -0.6 36 6.3 NE 19 28 10 15 1020.9 1020.8 0.0
23/12:30am 14.8 9.1 -0.9 34 6.6 NE 19 26 10 14 1021.1 1021.0 0.0
23/12:00am 14.9 8.8 -2.1 31 7.0 NE 20 32 11 17 1021.2 1021.1 0.0
 
Date/Time
CST
Temp
°C
App
Temp
°C
Dew
Point
Rel
Hum
%
Delta-T
°C
Wind Press
QNH
hPa
Press
MSL
hPa
Rain
since 9 am
mm
Dir
 
Spd
km/h
Gust
km/h
Spd
kts
Gust
kts
22/11:30pm 14.6 8.7 -1.9 32 6.8 NE 19 24 10 13 1021.3 1021.2 0.0
22/11:00pm 15.9 9.4 -2.6 28 7.6 NE 22 28 12 15 1021.4 1021.4 0.0
22/10:30pm 16.1 10.6 -2.4 28 7.6 NE 17 26 9 14 1021.7 1021.7 0.0
22/10:00pm 17.4 11.7 -3.4 24 8.5 ENE 17 24 9 13 1022.0 1021.9 0.0
22/09:30pm 17.6 12.3 -3.2 24 8.6 ENE 15 20 8 11 1022.1 1022.0 0.0
22/09:00pm 18.2 12.2 -3.2 23 8.9 E 19 26 10 14 1021.8 1021.8 0.0
22/08:30pm 18.0 11.8 -2.8 24 8.7 E 20 24 11 13 1021.7 1021.7 0.0
22/08:00pm 18.8 12.2 -3.3 22 9.2 E 22 28 12 15 1021.6 1021.6 0.0
22/07:30pm 19.3 13.1 -2.9 22 9.3 E 20 28 11 15 1021.6 1021.6 0.0
22/07:00pm 19.2 13.7 -2.4 23 9.2 ENE 17 26 9 14 1021.5 1021.5 0.0
22/06:30pm 19.4 14.0 -1.1 25 9.0 ENE 17 22 9 12 1021.2 1021.1 0.0
22/06:00pm 19.5 15.0 0.0 27 8.7 E 13 19 7 10 1021.0 1020.9 0.0
22/05:30pm 20.4 16.4 0.8 27 9.0 NE 11 17 6 9 1020.9 1020.8 0.0
22/05:00pm 20.7 16.6 0.0 25 9.4 NNE 11 19 6 10 1020.7 1020.6 0.0
22/04:30pm 21.8 17.2 -0.8 22 10.1 NE 13 24 7 13 1020.5 1020.4 0.0
22/04:00pm 23.6 19.9 0.0 21 10.9 N 9 19 5 10 1020.6 1020.5 0.0
22/03:30pm 23.2 19.1 -0.3 21 10.8 NNE 11 19 6 10 1020.8 1020.7 0.0
22/03:00pm 23.4 18.7 -1.5 19 11.2 NNE 13 19 7 10 1021.0 1020.9 0.0
22/02:30pm 23.4 19.6 -0.8 20 11.0 N 9 20 5 11 1021.2 1021.1 0.0
22/02:00pm 23.0 18.1 -0.5 21 10.7 NNW 15 24 8 13 1021.5 1021.5 0.0
22/01:30pm 22.5 17.8 -1.6 20 10.7 NNW 13 22 7 12 1021.8 1021.8 0.0
22/01:00pm 22.7 18.0 -2.1 19 11.0 NNW 13 20 7 11 1022.1 1022.0 0.0
22/12:30pm 22.3 17.1 -2.4 19 10.8 NNW 15 22 8 12 1022.6 1022.5 0.0
22/12:00pm 22.2 17.0 0.1 23 10.1 N 17 26 9 14 1023.1 1023.0 0.0
22/11:30am 21.1 16.7 0.3 25 9.5 NNW 13 20 7 11 1023.4 1023.3 0.0
22/11:00am 20.6 15.6 -1.2 23 9.6 NNW 15 24 8 13 1023.8 1023.8 0.0
22/10:30am 20.0 15.6 0.5 27 8.8 N 13 19 7 10 1024.2 1024.2 0.0
22/10:00am 19.4 14.8 1.4 30 8.3 N 15 24 8 13 1024.5 1024.5 0.0
22/09:30am 18.9 15.3 3.1 35 7.5 N 11 20 6 11 1024.9 1024.8 0.0
22/09:00am 17.5 14.0 3.4 39 6.6 NNE 11 19 6 10 1025.0 1024.9 0.0
22/08:30am 15.5 11.6 3.6 45 5.5 NNE 13 20 7 11 1025.0 1024.9 0.0
22/08:00am 13.8 9.9 3.3 49 4.8 NNE 13 19 7 10 1025.1 1025.0 0.0
22/07:30am 11.6 7.0 1.3 49 4.4 NE 15 22 8 12 1025.0 1024.9 0.0
22/07:00am 10.7 6.0 0.7 50 4.2 NE 15 24 8 13 1024.9 1024.8 0.0
22/06:30am 9.7 4.5 -0.2 50 4.0 NNE 17 26 9 14 1024.7 1024.7 0.0
22/06:00am 9.7 4.1 0.1 51 3.9 NE 19 26 10 14 1024.7 1024.7 0.0
22/05:30am 10.1 4.0 0.2 50 4.1 NE 22 32 12 17 1024.3 1024.3 0.0
22/05:00am 10.1 4.0 0.4 51 4.0 NE 22 32 12 17 1024.2 1024.2 0.0
22/04:30am 10.3 4.2 0.6 51 4.0 NE 22 30 12 16 1024.1 1024.1 0.0
22/04:00am 9.8 3.9 1.5 56 3.5 NE 22 32 12 17 1024.2 1024.2 0.0
22/03:30am 10.7 5.1 1.5 53 3.9 NE 20 28 11 15 1024.4 1024.4 0.0
22/03:00am 11.8 5.9 1.4 49 4.5 NE 22 30 12 16 1024.5 1024.5 0.0
22/02:30am 10.9 5.5 2.5 56 3.7 NE 20 26 11 14 1024.9 1024.8 0.0
22/02:00am 11.6 6.5 2.9 55 3.9 ENE 19 24 10 13 1025.2 1025.1 0.0
22/01:30am 12.1 6.9 2.3 51 4.3 ENE 19 26 10 14 1025.6 1025.5 0.0
22/01:00am 11.9 7.2 2.9 54 4.0 ENE 17 20 9 11 1025.9 1025.8 0.0
22/12:30am 11.8 7.6 3.6 57 3.7 ENE 15 20 8 11 1026.0 1025.9 0.0
22/12:00am 10.1 6.0 4.5 68 2.5 ENE 15 19 8 10 1025.9 1025.8 0.0
 
Date/Time
CST
Temp
°C
App
Temp
°C
Dew
Point
Rel
Hum
%
Delta-T
°C
Wind Press
QNH
hPa
Press
MSL
hPa
Rain
since 9 am
mm
Dir
 
Spd
km/h
Gust
km/h
Spd
kts
Gust
kts
21/11:30pm 11.0 6.9 4.2 63 3.1 ENE 15 20 8 11 1025.7 1025.6 0.0
21/11:00pm 12.0 7.2 4.7 61 3.4 E 19 26 10 14 1025.7 1025.6 0.0
21/10:30pm 12.1 7.7 5.0 62 3.3 E 17 22 9 12 1026.0 1025.9 0.0
21/10:00pm 12.1 7.8 5.3 63 3.2 E 17 20 9 11 1026.4 1026.4 0.0
21/09:30pm 11.3 6.9 5.0 65 2.9 ESE 17 19 9 10 1026.8 1026.8 0.0
21/09:00pm 11.6 7.7 5.3 65 2.9 SE 15 20 8 11 1027.0 1027.0 0.0
21/08:30pm 11.7 7.3 4.7 62 3.2 ESE 17 20 9 11 1026.8 1026.8 0.0
21/08:00pm 12.0 8.3 4.2 59 3.6 SE 13 20 7 11 1026.9 1026.9 0.0
21/07:30pm 13.1 8.9 4.0 54 4.2 ESE 15 19 8 10 1026.6 1026.6 0.0
21/07:00pm 13.9 10.2 4.2 52 4.5 ESE 13 17 7 9 1026.5 1026.5 0.0
21/06:30pm 14.8 11.4 3.9 48 5.1 SE 11 17 6 9 1026.4 1026.4 0.0
21/06:00pm 16.7 12.9 2.0 37 6.7 E 11 13 6 7 1026.1 1026.1 0.0
21/05:30pm 17.5 13.9 2.7 37 6.9 E 11 17 6 9 1026.1 1026.1 0.0
21/05:00pm 18.2 14.1 2.5 35 7.3 E 13 17 7 9 1026.0 1025.9 0.0
21/04:30pm 18.6 14.6 2.9 35 7.4 E 13 17 7 9 1026.0 1025.9 0.0
21/04:00pm 18.9 14.7 3.9 37 7.2 E 15 20 8 11 1025.8 1025.7 0.0
21/03:30pm 18.9 15.0 3.5 36 7.3 E 13 19 7 10 1025.9 1025.8 0.0
21/03:00pm 19.1 14.5 3.7 36 7.4 E 17 24 9 13 1026.2 1026.2 0.0
21/02:30pm 19.2 15.1 4.2 37 7.3 E 15 20 8 11 1026.1 1026.1 0.0
21/02:00pm 19.9 16.6 4.4 36 7.6 E 11 19 6 10 1026.6 1026.6 0.0
21/01:30pm 19.3 15.5 3.9 36 7.4 E 13 20 7 11 1027.0 1027.0 0.0
21/01:00pm 18.9 15.8 3.5 36 7.4 E 9 15 5 8 1027.4 1027.4 0.0
21/12:30pm 18.8 15.7 3.4 36 7.3 ESE 9 15 5 8 1028.2 1028.1 0.0
21/12:00pm 18.6 16.0 4.4 39 6.9 NE 7 11 4 6 1028.6 1028.6 0.0
21/11:30am 18.0 13.7 3.1 37 7.0 E 15 20 8 11 1028.7 1028.7 0.0
21/11:00am 17.7 15.2 4.6 42 6.4 ENE 7 15 4 8 1028.9 1028.9 0.0
21/10:30am 17.7 14.4 4.6 42 6.3 NE 11 17 6 9 1029.3 1029.3 0.0
21/10:00am 16.6 13.3 4.6 45 5.8 ENE 11 15 6 8 1029.4 1029.4 0.0
21/09:30am 15.9 12.3 5.2 49 5.1 NE 13 17 7 9 1029.5 1029.5 0.0
21/09:00am 15.1 11.1 4.8 50 4.9 NE 15 20 8 11 1029.4 1029.4 0.0
21/08:30am 13.6 8.8 4.5 54 4.2 NE 19 26 10 14 1029.1 1029.1 0.0
21/08:00am 12.0 7.1 4.2 59 3.6 NE 19 26 10 14 1028.8 1028.8 0.0
21/07:30am 10.9 6.0 3.9 62 3.1 NE 19 24 10 13 1028.7 1028.7 0.0
21/07:00am 9.9 4.4 3.9 66 2.7 NE 22 30 12 16 1028.4 1028.3 0.0
21/06:30am 9.2 3.6 3.6 68 2.5 NE 22 30 12 16 1028.2 1028.1 0.0
21/06:00am 8.7 3.0 2.9 67 2.5 NE 22 32 12 17 1027.9 1027.8 0.0
21/05:30am 9.1 3.0 2.9 65 2.7 NE 24 32 13 17 1027.4 1027.4 0.0
21/05:00am 9.2 3.9 3.0 65 2.7 ENE 20 28 11 15 1027.1 1027.1 0.0
21/04:30am 9.1 3.4 3.1 66 2.6 NE 22 30 12 16 1026.9 1026.9 0.0
21/04:00am 9.0 3.4 3.2 67 2.5 NE 22 30 12 16 1026.6 1026.6 0.0
21/03:30am 8.8 3.5 3.2 68 2.4 NE 20 28 11 15 1026.5 1026.5 0.0
21/03:00am 8.9 3.7 3.3 68 2.4 ENE 20 24 11 13 1026.5 1026.5 0.0
21/02:30am 9.3 4.0 3.1 65 2.7 ENE 20 28 11 15 1026.6 1026.6 0.0
21/02:00am 9.7 4.4 3.2 64 2.9 ENE 20 30 11 16 1026.6 1026.6 0.0
21/01:30am 9.9 5.3 3.6 65 2.8 ENE 17 24 9 13 1027.0 1027.0 0.0
21/01:00am 10.0 4.9 4.0 66 2.7 ENE 20 26 11 14 1027.3 1027.3 0.0
21/12:30am 10.2 5.1 4.1 66 2.7 E 20 26 11 14 1027.2 1027.2 0.0
21/12:00am 10.4 5.6 4.5 67 2.7 ENE 19 28 10 15 1027.0 1027.0 0.0
 
Date/Time
CST
Temp
°C
App
Temp
°C
Dew
Point
Rel
Hum
%
Delta-T
°C
Wind Press
QNH
hPa
Press
MSL
hPa
Rain
since 9 am
mm
Dir
 
Spd
km/h
Gust
km/h
Spd
kts
Gust
kts
20/11:30pm 10.7 4.9 4.6 66 2.8 E 24 33 13 18 1027.0 1027.0 0.0
20/11:00pm 10.7 5.5 5.5 70 2.4 E 22 30 12 16 1027.1 1027.1 0.0
20/10:30pm 10.7 5.5 5.7 71 2.3 E 22 30 12 16 1027.3 1027.3 0.0
20/10:00pm 10.8 5.3 6.0 72 2.3 E 24 32 13 17 1027.2 1027.2 0.0

Other Formats:

Comma delimited format used in spreadsheet applications
http://www.bom.gov.au/fwo/IDS60801/IDS60801.94683.axf

JavaScript Object Notation format (JSON) in row-major order
http://www.bom.gov.au/fwo/IDS60801/IDS60801.94683.json